createdAt,value
2019-01-20T00:01:28.138Z,3.50
2019-01-20T00:07:10.911Z,3.50
2019-01-20T00:09:39.186Z,3.40
2019-01-20T00:12:09.123Z,3.30
2019-01-20T00:14:58.975Z,3.40
2019-01-20T00:17:27.462Z,3.40
2019-01-20T00:19:56.219Z,3.40
2019-01-20T00:22:24.519Z,3.30
2019-01-20T00:24:52.766Z,3.30
2019-01-20T00:27:22.900Z,3.30
2019-01-20T00:29:54.328Z,3.30
2019-01-20T00:32:24.131Z,3.40
2019-01-20T00:35:20.792Z,3.30
2019-01-20T00:38:02.925Z,3.30
2019-01-20T00:40:53.477Z,3.30
2019-01-20T00:44:08.454Z,3.20
2019-01-20T00:46:39.809Z,3.20
2019-01-20T00:49:37.019Z,3.30
2019-01-20T00:52:32.237Z,3.30
2019-01-20T00:55:45.122Z,3.30
2019-01-20T00:59:15.482Z,3.30
2019-01-20T01:02:24.548Z,3.20
2019-01-20T01:05:07.315Z,3.20
2019-01-20T01:07:40.288Z,3.30
2019-01-20T01:10:21.370Z,3.30
2019-01-20T01:13:00.202Z,3.40
2019-01-20T01:15:56.123Z,3.40
2019-01-20T01:18:25.567Z,3.40
2019-01-20T01:20:53.710Z,3.40
2019-01-20T01:23:21.922Z,3.50
2019-01-20T01:25:50.184Z,3.50
2019-01-20T01:28:18.313Z,3.50
2019-01-20T01:30:46.719Z,3.50
2019-01-20T01:33:14.945Z,3.50
2019-01-20T01:35:43.213Z,3.50
2019-01-20T01:38:11.813Z,3.50
2019-01-20T01:41:02.694Z,3.50
2019-01-20T01:43:39.164Z,3.60
2019-01-20T01:46:24.021Z,3.60
2019-01-20T01:49:30.189Z,3.60
2019-01-20T01:51:58.366Z,3.50
2019-01-20T01:54:26.605Z,3.50
2019-01-20T01:57:03.223Z,3.50
2019-01-20T01:59:58.583Z,3.40
2019-01-20T02:05:21.002Z,3.40
2019-01-20T02:07:49.256Z,3.30
2019-01-20T02:10:19.761Z,3.40
2019-01-20T02:12:48.790Z,3.40
2019-01-20T02:15:18.087Z,3.40
2019-01-20T02:17:46.549Z,3.40
2019-01-20T02:20:17.326Z,3.50
2019-01-20T02:22:45.694Z,3.50
2019-01-20T02:25:14.549Z,3.50
2019-01-20T02:27:53.672Z,3.60
2019-01-20T02:30:43.435Z,3.60
2019-01-20T02:33:22.094Z,3.60
2019-01-20T02:39:28.156Z,3.80
2019-01-20T02:42:04.584Z,3.80
2019-01-20T02:45:04.127Z,3.80
2019-01-20T02:50:50.763Z,3.80
2019-01-20T02:53:29.604Z,3.80
2019-01-20T02:56:15.040Z,3.80
2019-01-20T02:58:53.086Z,3.90
2019-01-20T03:04:25.788Z,3.90
2019-01-20T03:07:32.525Z,3.90
2019-01-20T03:13:30.804Z,4.00
2019-01-20T03:19:50.060Z,4.10
2019-01-20T03:22:17.417Z,4.20
2019-01-20T03:24:45.550Z,4.20
2019-01-20T03:27:13.841Z,4.20
2019-01-20T03:29:43.825Z,4.10
2019-01-20T03:32:12.535Z,4.10
2019-01-20T03:34:40.745Z,4.10
2019-01-20T03:37:09.103Z,4.20
2019-01-20T03:39:37.222Z,4.20
2019-01-20T03:42:11.915Z,4.40
2019-01-20T03:44:35.593Z,4.50
2019-01-20T03:47:25.818Z,4.60
2019-01-20T03:49:53.973Z,4.60
2019-01-20T03:52:35.348Z,4.80
2019-01-20T03:55:27.607Z,4.90
2019-01-20T03:58:10.014Z,4.90
2019-01-20T04:00:53.217Z,5.00
2019-01-20T04:03:21.482Z,5.00
2019-01-20T04:05:49.698Z,5.00
2019-01-20T04:08:17.840Z,5.00
2019-01-20T04:10:46.033Z,5.00
2019-01-20T04:13:14.284Z,5.10
2019-01-20T04:15:42.405Z,5.10
2019-01-20T04:18:10.614Z,5.20
2019-01-20T04:20:38.800Z,5.10
2019-01-20T04:23:07.074Z,5.00
2019-01-20T04:25:54.541Z,4.90
2019-01-20T04:28:22.723Z,4.90
2019-01-20T04:30:51.268Z,4.90
2019-01-20T04:33:19.893Z,4.90
2019-01-20T04:35:47.963Z,4.90
2019-01-20T04:38:16.098Z,4.80
2019-01-20T04:40:44.193Z,4.90
2019-01-20T04:43:12.438Z,4.90
2019-01-20T04:45:40.631Z,4.90
2019-01-20T04:48:09.207Z,4.90
2019-01-20T04:50:37.434Z,5.00
2019-01-20T04:53:06.214Z,4.90
2019-01-20T04:55:35.073Z,4.90
2019-01-20T04:58:03.339Z,5.00
2019-01-20T05:00:31.448Z,5.00
2019-01-20T05:02:59.677Z,5.10
2019-01-20T05:05:28.302Z,5.10
2019-01-20T05:07:56.583Z,5.10
2019-01-20T05:10:24.873Z,5.10
2019-01-20T05:12:53.126Z,5.10
2019-01-20T05:15:25.682Z,5.10
2019-01-20T05:18:12.656Z,5.10
2019-01-20T05:21:03.501Z,5.10
2019-01-20T05:23:44.060Z,5.10
2019-01-20T05:26:20.618Z,5.00
2019-01-20T05:29:07.000Z,5.00
2019-01-20T05:31:35.400Z,5.00
2019-01-20T05:34:03.763Z,5.00
2019-01-20T05:36:31.874Z,5.00
2019-01-20T05:39:00.005Z,5.00
2019-01-20T05:41:28.064Z,5.00
2019-01-20T05:43:56.213Z,4.90
2019-01-20T05:46:26.425Z,4.80
2019-01-20T05:48:55.174Z,4.80
2019-01-20T05:51:23.341Z,4.80
2019-01-20T05:53:51.490Z,4.70
2019-01-20T05:56:19.615Z,4.70
2019-01-20T05:58:48.243Z,4.70
2019-01-20T06:01:16.346Z,4.80
2019-01-20T06:03:44.573Z,4.80
2019-01-20T06:06:12.700Z,4.90
2019-01-20T06:08:40.845Z,4.80
2019-01-20T06:11:09.346Z,4.80
2019-01-20T06:13:37.438Z,4.80
2019-01-20T06:16:05.680Z,4.70
2019-01-20T06:18:34.197Z,4.70
2019-01-20T06:21:02.446Z,4.70
2019-01-20T06:23:30.941Z,4.70
2019-01-20T06:25:59.103Z,4.70
2019-01-20T06:28:27.303Z,4.60
2019-01-20T06:30:55.844Z,4.60
2019-01-20T06:33:24.051Z,4.60
2019-01-20T06:35:52.725Z,4.60
2019-01-20T06:38:20.832Z,4.70
2019-01-20T06:40:48.977Z,4.70
2019-01-20T06:43:17.090Z,4.70
2019-01-20T06:45:45.719Z,4.80
2019-01-20T06:48:16.361Z,4.80
2019-01-20T06:50:44.557Z,4.80
2019-01-20T06:53:12.677Z,4.80
2019-01-20T06:55:40.808Z,4.80
2019-01-20T06:58:08.905Z,4.90
2019-01-20T07:00:37.177Z,4.90
2019-01-20T07:03:05.345Z,4.90
2019-01-20T07:05:33.468Z,4.90
2019-01-20T07:08:01.540Z,5.00
2019-01-20T07:10:29.669Z,5.00
2019-01-20T07:12:57.745Z,5.00
2019-01-20T07:15:25.862Z,5.00
2019-01-20T07:17:54.168Z,5.00
2019-01-20T07:20:23.157Z,5.00
2019-01-20T07:22:51.333Z,5.10
2019-01-20T07:25:19.757Z,5.00
2019-01-20T07:27:47.829Z,5.00
2019-01-20T07:30:18.408Z,5.00
2019-01-20T07:32:46.477Z,5.00
2019-01-20T07:35:14.921Z,5.00
2019-01-20T07:37:43.285Z,5.00
2019-01-20T07:40:12.706Z,5.10
2019-01-20T07:42:40.869Z,5.10
2019-01-20T07:45:11.004Z,5.10
2019-01-20T07:47:39.273Z,5.20
2019-01-20T07:50:14.248Z,5.20
2019-01-20T07:52:42.317Z,5.20
2019-01-20T07:55:10.688Z,5.10
2019-01-20T07:57:38.751Z,5.10
2019-01-20T08:00:09.462Z,5.10
2019-01-20T08:02:37.724Z,5.20
2019-01-20T08:05:07.151Z,5.20
2019-01-20T08:07:35.627Z,5.20
2019-01-20T08:10:04.904Z,5.20
2019-01-20T08:12:33.102Z,5.20
2019-01-20T08:15:01.689Z,5.20
2019-01-20T08:17:30.678Z,5.20
2019-01-20T08:19:59.153Z,5.20
2019-01-20T08:22:27.592Z,5.20
2019-01-20T08:24:56.240Z,5.30
2019-01-20T08:27:24.927Z,5.30
2019-01-20T08:29:53.356Z,5.30
2019-01-20T08:32:21.997Z,5.30
2019-01-20T08:34:50.530Z,5.30
2019-01-20T08:37:18.654Z,5.40
2019-01-20T08:39:46.705Z,5.30
2019-01-20T08:42:14.905Z,5.40
2019-01-20T08:44:44.442Z,5.40
2019-01-20T08:47:28.751Z,5.50
2019-01-20T08:49:56.873Z,5.50
2019-01-20T08:52:25.132Z,5.60
2019-01-20T08:54:53.302Z,5.70
2019-01-20T08:57:21.516Z,5.70
2019-01-20T08:59:49.591Z,5.80
2019-01-20T09:02:17.928Z,5.80
2019-01-20T09:04:46.497Z,5.90
2019-01-20T09:07:14.859Z,5.90
2019-01-20T09:09:43.093Z,5.90
2019-01-20T09:12:11.433Z,5.90
2019-01-20T09:14:39.974Z,6.00
2019-01-20T09:17:08.505Z,6.10
2019-01-20T09:19:36.572Z,6.10
2019-01-20T09:22:04.902Z,6.20
2019-01-20T09:24:33.073Z,6.30
2019-01-20T09:27:01.203Z,6.30
2019-01-20T09:29:29.293Z,6.40
2019-01-20T09:31:57.413Z,6.40
2019-01-20T09:34:25.676Z,6.50
2019-01-20T09:36:53.796Z,6.50
2019-01-20T09:39:21.872Z,6.50
2019-01-20T09:41:49.996Z,6.60
2019-01-20T09:44:18.082Z,6.60
2019-01-20T09:46:46.432Z,6.60
2019-01-20T09:49:14.625Z,6.60
2019-01-20T09:51:42.896Z,6.60
2019-01-20T09:54:10.965Z,6.60
2019-01-20T09:56:39.291Z,6.70
2019-01-20T09:59:07.837Z,6.70
2019-01-20T10:01:35.993Z,6.70
2019-01-20T10:04:04.741Z,6.80
2019-01-20T10:06:32.978Z,6.70
2019-01-20T10:09:01.377Z,6.70
2019-01-20T10:11:29.852Z,6.70
2019-01-20T10:13:58.014Z,6.70
2019-01-20T10:16:26.176Z,6.60
2019-01-20T10:18:54.293Z,6.70
2019-01-20T10:21:22.565Z,6.70
2019-01-20T10:23:50.729Z,6.70
2019-01-20T10:26:18.841Z,6.70
2019-01-20T10:28:47.481Z,6.70
2019-01-20T10:31:15.677Z,6.70
2019-01-20T10:33:43.833Z,6.70
2019-01-20T10:36:11.898Z,6.70
2019-01-20T10:38:40.209Z,6.70
2019-01-20T10:41:08.360Z,6.70
2019-01-20T10:43:36.504Z,6.80
2019-01-20T10:46:04.705Z,6.70
2019-01-20T10:48:33.037Z,6.80
2019-01-20T10:51:01.251Z,6.80
2019-01-20T10:53:29.577Z,6.80
2019-01-20T10:55:57.649Z,6.80
2019-01-20T10:58:25.900Z,6.80
2019-01-20T11:00:54.909Z,6.80
2019-01-20T11:03:23.248Z,6.80
2019-01-20T11:05:51.973Z,6.80
2019-01-20T11:08:20.297Z,6.80
2019-01-20T11:10:48.410Z,6.90
2019-01-20T11:13:16.545Z,6.90
2019-01-20T11:15:44.752Z,6.80
2019-01-20T11:18:12.997Z,6.90
2019-01-20T11:20:41.064Z,6.90
2019-01-20T11:23:09.448Z,6.90
2019-01-20T11:25:40.180Z,6.90
2019-01-20T11:28:08.604Z,6.90
2019-01-20T11:30:36.798Z,6.90
2019-01-20T11:33:05.545Z,6.90
2019-01-20T11:35:34.065Z,7.00
2019-01-20T11:38:02.328Z,7.00
2019-01-20T11:40:30.398Z,7.00
2019-01-20T11:42:59.166Z,7.10
2019-01-20T11:45:28.877Z,7.10
2019-01-20T11:47:57.335Z,7.10
2019-01-20T11:50:25.760Z,7.10
2019-01-20T11:52:53.911Z,7.10
2019-01-20T11:55:23.333Z,7.20
2019-01-20T11:57:51.805Z,7.30
2019-01-20T12:00:22.449Z,7.20
2019-01-20T12:02:51.160Z,7.30
2019-01-20T12:05:19.421Z,7.30
2019-01-20T12:07:47.689Z,7.30
2019-01-20T12:10:16.074Z,7.40
2019-01-20T12:12:47.341Z,7.40
2019-01-20T12:15:16.592Z,7.30
2019-01-20T12:17:45.004Z,7.30
2019-01-20T12:20:13.392Z,7.40
2019-01-20T12:22:41.667Z,7.40
2019-01-20T12:25:12.689Z,7.40
2019-01-20T12:27:40.960Z,7.40
2019-01-20T12:30:12.933Z,7.50
2019-01-20T12:32:41.101Z,7.50
2019-01-20T12:35:09.449Z,7.50
2019-01-20T12:37:38.161Z,7.50
2019-01-20T12:40:10.229Z,7.60
2019-01-20T12:42:38.293Z,7.60
2019-01-20T12:45:07.188Z,7.70
2019-01-20T12:47:36.588Z,7.70
2019-01-20T12:50:07.776Z,7.70
2019-01-20T12:52:37.578Z,7.70
2019-01-20T12:55:07.505Z,7.80
2019-01-20T12:57:35.922Z,7.80
2019-01-20T13:00:05.546Z,7.80
2019-01-20T13:02:33.649Z,7.80
2019-01-20T13:05:01.988Z,7.90
2019-01-20T13:07:30.160Z,7.90
2019-01-20T13:09:58.465Z,7.90
2019-01-20T13:12:26.693Z,8.00
2019-01-20T13:14:55.301Z,8.00
2019-01-20T13:17:23.362Z,8.00
2019-01-20T13:19:51.601Z,8.00
2019-01-20T13:22:19.765Z,8.00
2019-01-20T13:24:48.065Z,8.00
2019-01-20T13:27:16.164Z,8.00
2019-01-20T13:29:44.281Z,8.10
2019-01-20T13:32:12.354Z,8.10
2019-01-20T13:34:40.477Z,8.10
2019-01-20T13:37:08.546Z,8.10
2019-01-20T13:39:36.809Z,8.10
2019-01-20T13:42:04.984Z,8.20
2019-01-20T13:44:33.104Z,8.20
2019-01-20T13:47:01.180Z,8.30
2019-01-20T13:49:29.304Z,8.30
2019-01-20T13:51:57.445Z,8.40
2019-01-20T13:54:25.721Z,8.40
2019-01-20T13:56:54.020Z,8.40
2019-01-20T13:59:22.312Z,8.40
2019-01-20T14:01:50.490Z,8.50
2019-01-20T14:04:18.569Z,8.40
2019-01-20T14:06:47.212Z,8.40
2019-01-20T14:09:15.445Z,8.50
2019-01-20T14:11:44.033Z,8.50
2019-01-20T14:14:12.214Z,8.50
2019-01-20T14:16:40.478Z,8.50
2019-01-20T14:19:08.755Z,8.50
2019-01-20T14:21:37.653Z,8.60
2019-01-20T14:24:06.364Z,8.60
2019-01-20T14:26:34.586Z,8.60
2019-01-20T14:29:02.729Z,8.60
2019-01-20T14:31:30.917Z,8.60
2019-01-20T14:33:59.153Z,8.60
2019-01-20T14:36:28.969Z,8.70
2019-01-20T14:38:57.159Z,8.70
2019-01-20T14:41:25.474Z,8.70
2019-01-20T14:43:53.592Z,8.70
2019-01-20T14:46:22.217Z,8.80
2019-01-20T14:48:50.301Z,8.70
2019-01-20T14:51:18.525Z,8.80
2019-01-20T14:53:48.772Z,8.80
2019-01-20T14:56:17.349Z,8.80
2019-01-20T14:58:45.422Z,8.70
2019-01-20T15:01:13.760Z,8.80
2019-01-20T15:03:41.881Z,8.80
2019-01-20T15:06:10.217Z,8.80
2019-01-20T15:08:48.447Z,8.80
2019-01-20T15:11:21.886Z,8.70
2019-01-20T15:13:50.068Z,8.80
2019-01-20T15:16:18.713Z,8.80
2019-01-20T15:18:46.768Z,8.80
2019-01-20T15:21:14.929Z,8.80
2019-01-20T15:23:43.201Z,8.80
2019-01-20T15:26:11.393Z,8.80
2019-01-20T15:28:39.633Z,8.80
2019-01-20T15:31:07.793Z,8.80
2019-01-20T15:33:36.377Z,8.70
2019-01-20T15:36:04.745Z,8.70
2019-01-20T15:38:32.855Z,8.70
2019-01-20T15:41:01.151Z,8.70
2019-01-20T15:43:29.293Z,8.70
2019-01-20T15:45:57.701Z,8.70
2019-01-20T15:48:25.833Z,8.60
2019-01-20T15:50:53.965Z,8.60
2019-01-20T15:53:22.135Z,8.60
2019-01-20T15:55:51.626Z,8.60
2019-01-20T15:58:21.596Z,8.60
2019-01-20T16:00:49.680Z,8.50
2019-01-20T16:03:17.935Z,8.50
2019-01-20T16:05:46.012Z,8.50
2019-01-20T16:08:14.357Z,8.40
2019-01-20T16:10:42.746Z,8.40
2019-01-20T16:13:11.444Z,8.30
2019-01-20T16:15:39.616Z,8.30
2019-01-20T16:18:07.884Z,8.20
2019-01-20T16:20:36.104Z,8.10
2019-01-20T16:23:06.217Z,8.10
2019-01-20T16:25:35.916Z,8.00
2019-01-20T16:28:07.886Z,8.00
2019-01-20T16:30:38.262Z,7.90
2019-01-20T16:33:07.357Z,7.90
2019-01-20T16:35:35.655Z,7.80
2019-01-20T16:38:05.454Z,7.80
2019-01-20T16:40:33.648Z,7.70
2019-01-20T16:43:01.884Z,7.50
2019-01-20T16:45:41.921Z,7.50
2019-01-20T16:48:06.049Z,7.40
2019-01-20T16:50:34.435Z,7.30
2019-01-20T16:53:03.069Z,7.30
2019-01-20T16:55:31.232Z,7.30
2019-01-20T16:58:23.619Z,7.20
2019-01-20T17:00:51.706Z,7.10
2019-01-20T17:03:20.020Z,7.00
2019-01-20T17:05:48.301Z,6.90
2019-01-20T17:08:16.540Z,6.80
2019-01-20T17:10:45.740Z,6.70
2019-01-20T17:13:14.109Z,6.60
2019-01-20T17:15:44.032Z,6.50
2019-01-20T17:18:14.386Z,6.40
2019-01-20T17:20:43.151Z,6.30
2019-01-20T17:23:11.484Z,6.20
2019-01-20T17:25:39.582Z,6.10
2019-01-20T17:28:07.845Z,6.10
2019-01-20T17:30:36.218Z,6.00
2019-01-20T17:33:05.066Z,5.90
2019-01-20T17:35:33.200Z,5.90
2019-01-20T17:38:01.443Z,5.80
2019-01-20T17:40:29.754Z,5.70
2019-01-20T17:42:58.513Z,5.80
2019-01-20T17:45:29.168Z,5.80
2019-01-20T17:47:57.317Z,5.90
2019-01-20T17:50:28.689Z,5.80
2019-01-20T17:52:57.099Z,5.90
2019-01-20T17:55:27.366Z,5.80
2019-01-20T17:57:56.185Z,5.80
2019-01-20T18:00:31.286Z,5.80
2019-01-20T18:02:59.535Z,5.70
2019-01-20T18:05:28.531Z,5.70
2019-01-20T18:07:56.709Z,5.60
2019-01-20T18:10:26.601Z,5.50
2019-01-20T18:12:55.229Z,5.50
2019-01-20T18:15:23.627Z,5.50
2019-01-20T18:17:52.026Z,5.50
2019-01-20T18:20:22.547Z,5.50
2019-01-20T18:23:17.704Z,5.60
2019-01-20T18:26:18.169Z,5.60
2019-01-20T18:29:23.335Z,5.60
2019-01-20T18:32:06.598Z,5.60
2019-01-20T18:34:40.861Z,5.60
2019-01-20T18:37:13.411Z,5.50
2019-01-20T18:39:41.608Z,5.50
2019-01-20T18:42:09.819Z,5.50
2019-01-20T18:44:37.975Z,5.50
2019-01-20T18:47:06.179Z,5.60
2019-01-20T18:49:41.805Z,5.60
2019-01-20T18:52:10.146Z,5.70
2019-01-20T18:54:38.264Z,5.60
2019-01-20T18:57:06.363Z,5.60
2019-01-20T18:59:34.490Z,5.60
2019-01-20T19:02:02.761Z,5.50
2019-01-20T19:04:30.876Z,5.50
2019-01-20T19:06:59.345Z,5.60
2019-01-20T19:09:27.490Z,5.60
2019-01-20T19:11:55.570Z,5.60
2019-01-20T19:14:23.797Z,5.60
2019-01-20T19:16:51.894Z,5.60
2019-01-20T19:19:20.029Z,5.70
2019-01-20T19:21:48.568Z,5.60
2019-01-20T19:24:16.806Z,5.60
2019-01-20T19:26:44.886Z,5.60
2019-01-20T19:29:13.028Z,5.60
2019-01-20T19:31:41.119Z,5.60
2019-01-20T19:34:09.349Z,5.50
2019-01-20T19:36:37.436Z,5.50
2019-01-20T19:39:07.844Z,5.50
2019-01-20T19:41:35.925Z,5.40
2019-01-20T19:44:04.258Z,5.40
2019-01-20T19:46:32.797Z,5.40
2019-01-20T19:49:00.996Z,5.30
2019-01-20T19:51:29.133Z,5.30
2019-01-20T19:53:57.313Z,5.20
2019-01-20T19:56:25.454Z,5.10
2019-01-20T19:58:54.077Z,5.00
2019-01-20T20:01:22.163Z,5.00
2019-01-20T20:03:50.241Z,5.00
2019-01-20T20:06:20.057Z,5.00
2019-01-20T20:08:50.257Z,5.00
2019-01-20T20:11:35.433Z,4.90
2019-01-20T20:14:08.869Z,4.90
2019-01-20T20:16:38.805Z,4.90
2019-01-20T20:19:10.192Z,4.90
2019-01-20T20:21:42.046Z,4.80
2019-01-20T20:24:12.689Z,4.80
2019-01-20T20:26:43.934Z,4.70
2019-01-20T20:29:21.833Z,4.60
2019-01-20T20:32:04.403Z,4.60
2019-01-20T20:34:40.187Z,4.50
2019-01-20T20:37:13.353Z,4.50
2019-01-20T20:39:50.830Z,4.40
2019-01-20T20:42:21.826Z,4.40
2019-01-20T20:44:52.582Z,4.40
2019-01-20T20:47:26.677Z,4.40
2019-01-20T20:49:57.938Z,4.30
2019-01-20T20:52:33.538Z,4.20
2019-01-20T20:55:19.219Z,4.10
2019-01-20T20:57:51.302Z,3.90
2019-01-20T21:00:28.343Z,3.90
2019-01-20T21:03:06.811Z,3.80
2019-01-20T21:05:36.418Z,3.70
2019-01-20T21:08:05.849Z,3.80
2019-01-20T21:10:37.992Z,3.70
2019-01-20T21:13:13.041Z,3.80
2019-01-20T21:15:46.341Z,3.80
2019-01-20T21:18:25.050Z,3.80
2019-01-20T21:20:57.757Z,3.70
2019-01-20T21:23:54.446Z,3.60
2019-01-20T21:26:32.021Z,3.60
2019-01-20T21:29:06.462Z,3.50
2019-01-20T21:31:37.557Z,3.60
2019-01-20T21:34:08.958Z,3.50
2019-01-20T21:36:39.920Z,3.40
2019-01-20T21:39:22.068Z,3.40
2019-01-20T21:42:12.692Z,3.30
2019-01-20T21:44:53.918Z,3.20
2019-01-20T21:47:27.214Z,3.10
2019-01-20T21:50:03.898Z,3.20
2019-01-20T21:52:38.627Z,3.10
2019-01-20T21:55:12.989Z,3.10
2019-01-20T21:57:44.793Z,3.00
2019-01-20T22:00:17.128Z,3.00
2019-01-20T22:02:53.642Z,2.90
2019-01-20T22:05:25.733Z,2.90
2019-01-20T22:07:57.350Z,2.80
2019-01-20T22:10:35.160Z,2.80
2019-01-20T22:13:05.126Z,2.70
2019-01-20T22:15:39.113Z,2.70
2019-01-20T22:18:29.280Z,2.70
2019-01-20T22:21:06.674Z,2.60
2019-01-20T22:23:50.714Z,2.70
2019-01-20T22:26:19.205Z,2.70
2019-01-20T22:28:47.301Z,2.70
2019-01-20T22:31:15.454Z,2.70
2019-01-20T22:33:43.565Z,2.70
2019-01-20T22:36:11.697Z,2.70
2019-01-20T22:38:39.769Z,2.70
2019-01-20T22:41:07.900Z,2.70
2019-01-20T22:43:35.987Z,2.70
2019-01-20T22:46:04.321Z,2.50
2019-01-20T22:48:32.412Z,2.50
2019-01-20T22:51:00.562Z,2.40
2019-01-20T22:53:28.652Z,2.40
2019-01-20T22:55:56.781Z,2.40
2019-01-20T22:58:24.853Z,2.40
2019-01-20T23:01:00.065Z,2.40
2019-01-20T23:03:28.946Z,2.40
2019-01-20T23:05:57.737Z,2.40
2019-01-20T23:08:26.040Z,2.40
2019-01-20T23:10:54.294Z,2.40
2019-01-20T23:13:22.430Z,2.40
2019-01-20T23:15:50.713Z,2.40
2019-01-20T23:18:18.979Z,2.30
2019-01-20T23:20:47.194Z,2.30
2019-01-20T23:23:15.507Z,2.30
2019-01-20T23:25:43.664Z,2.20
2019-01-20T23:28:11.859Z,2.20
2019-01-20T23:30:40.045Z,2.10
2019-01-20T23:33:08.569Z,2.10
2019-01-20T23:35:36.785Z,2.10
2019-01-20T23:38:05.145Z,2.10
2019-01-20T23:40:34.144Z,2.10
2019-01-20T23:43:02.376Z,2.10
2019-01-20T23:45:30.673Z,2.10
2019-01-20T23:47:58.906Z,2.10
2019-01-20T23:50:27.201Z,2.10
2019-01-20T23:52:55.453Z,2.00
2019-01-20T23:55:23.533Z,2.00
2019-01-20T23:57:51.898Z,2.00
